Time;durP1;ratioP1;P1;durP2;ratioP2;P2;SDS_P1;SDS_P2;PMS_P1;PMS_P2;Temp;Humidity;BMP_temperature;BMP_pressure;BME280_temperature;BME280_humidity;BME280_pressure;Samples;Min_cycle;Max_cycle;Signal;HPM_P1;HPM_P2
2023/12/02 00:01:31;;;;;;;31.97;15.60;;;;;;;;;;6213751;23;20247;-93
2023/12/02 00:04:38;;;;;;;36.97;15.70;;;;;;;;;;6213888;23;20191;-93
2023/12/02 00:07:43;;;;;;;31.73;15.80;;;;;;;;;;6213416;23;20268;-94
2023/12/02 00:10:48;;;;;;;33.47;16.27;;;;;;;;;;6215426;23;20159;-91
2023/12/02 00:13:54;;;;;;;29.47;14.97;;;;;;;;;;6214364;23;20171;-92
2023/12/02 00:16:59;;;;;;;31.47;15.17;;;;;;;;;;6215410;23;20190;-90
2023/12/02 00:20:09;;;;;;;31.43;15.27;;;;;;;;;;6215078;22;20167;-92
2023/12/02 00:23:15;;;;;;;30.23;15.50;;;;;;;;;;6216736;23;20171;-91
2023/12/02 00:26:20;;;;;;;37.73;16.63;;;;;;;;;;6212296;23;20174;-93
2023/12/02 00:29:34;;;;;;;36.17;16.90;;;;;;;;;;6211821;22;20665;-92
2023/12/02 00:32:39;;;;;;;33.10;16.33;;;;;;;;;;6212012;22;20219;-93
2023/12/02 00:35:46;;;;;;;32.93;16.57;;;;;;;;;;6210407;23;20151;-93
2023/12/02 00:38:52;;;;;;;27.73;14.30;;;;;;;;;;6212863;23;20232;-90
2023/12/02 00:41:57;;;;;;;30.03;14.87;;;;;;;;;;6211875;23;20171;-91
2023/12/02 00:45:02;;;;;;;30.37;14.17;;;;;;;;;;6212762;23;20330;-91
2023/12/02 00:48:07;;;;;;;32.17;15.77;;;;;;;;;;6211724;23;20171;-90
2023/12/02 00:51:14;;;;;;;34.60;15.07;;;;;;;;;;6213498;22;20151;-92
2023/12/02 00:54:19;;;;;;;28.63;13.63;;;;;;;;;;6212962;22;20171;-91
2023/12/02 00:57:24;;;;;;;23.63;12.90;;;;;;;;;;6212592;23;20614;-93
2023/12/02 01:00:30;;;;;;;29.80;13.97;;;;;;;;;;6214477;23;20171;-92
2023/12/02 01:03:35;;;;;;;26.80;13.40;;;;;;;;;;6212868;22;20163;-92
2023/12/02 01:06:42;;;;;;;34.60;14.73;;;;;;;;;;6213605;22;20218;-92
2023/12/02 01:09:47;;;;;;;27.30;14.03;;;;;;;;;;6211636;22;20551;-91
2023/12/02 01:12:52;;;;;;;25.97;12.80;;;;;;;;;;6212261;23;20611;-92
2023/12/02 01:15:57;;;;;;;24.23;12.00;;;;;;;;;;6212482;23;20166;-91
2023/12/02 01:19:02;;;;;;;24.20;11.47;;;;;;;;;;6210901;23;20302;-92
2023/12/02 01:22:10;;;;;;;23.23;11.23;;;;;;;;;;6212061;23;20178;-89
2023/12/02 01:25:15;;;;;;;21.83;10.93;;;;;;;;;;6211131;22;20223;-93
2023/12/02 01:28:20;;;;;;;21.27;11.50;;;;;;;;;;6211464;22;20176;-93
2023/12/02 01:31:25;;;;;;;23.13;11.50;;;;;;;;;;6211277;23;20598;-92
2023/12/02 01:34:30;;;;;;;23.43;10.50;;;;;;;;;;6210500;23;20223;-93
2023/12/02 01:37:37;;;;;;;21.50;10.43;;;;;;;;;;6209635;23;20167;-92
2023/12/02 01:40:42;;;;;;;19.63;9.60;;;;;;;;;;6210098;22;20167;-92
2023/12/02 01:43:47;;;;;;;21.60;10.50;;;;;;;;;;6210887;23;20167;-93
2023/12/02 01:46:52;;;;;;;21.93;10.13;;;;;;;;;;6210830;22;20495;-93
2023/12/02 01:49:59;;;;;;;20.43;10.07;;;;;;;;;;6210620;23;20171;-93
2023/12/02 01:53:06;;;;;;;22.07;9.90;;;;;;;;;;6210265;23;20240;-92
2023/12/02 01:56:12;;;;;;;21.53;10.00;;;;;;;;;;6209435;23;20167;-93
2023/12/02 01:59:19;;;;;;;21.10;10.33;;;;;;;;;;6209936;23;20167;-92
2023/12/02 02:02:25;;;;;;;19.67;10.30;;;;;;;;;;6209815;23;20246;-93
2023/12/02 02:05:31;;;;;;;20.70;9.33;;;;;;;;;;6209870;23;20199;-93
2023/12/02 02:08:37;;;;;;;21.90;10.10;;;;;;;;;;6209430;23;20179;-92
2023/12/02 02:11:42;;;;;;;24.53;11.30;;;;;;;;;;6208701;23;20175;-92
2023/12/02 02:14:47;;;;;;;24.87;10.83;;;;;;;;;;6208663;23;20220;-93
2023/12/02 02:17:52;;;;;;;26.33;12.23;;;;;;;;;;6209485;22;20167;-93
2023/12/02 02:20:57;;;;;;;25.87;11.50;;;;;;;;;;6211062;23;20618;-93
2023/12/02 02:24:04;;;;;;;23.20;11.60;;;;;;;;;;6210634;22;20171;-92
2023/12/02 02:27:09;;;;;;;25.20;11.63;;;;;;;;;;6210032;23;20170;-94
2023/12/02 02:30:15;;;;;;;27.27;11.63;;;;;;;;;;6209731;22;20166;-92
2023/12/02 02:33:20;;;;;;;23.83;11.27;;;;;;;;;;6210133;22;20163;-94
2023/12/02 02:36:25;;;;;;;26.70;12.10;;;;;;;;;;6212283;22;20154;-93
2023/12/02 02:39:32;;;;;;;28.23;12.50;;;;;;;;;;6211965;22;20175;-92
2023/12/02 02:42:37;;;;;;;31.93;13.53;;;;;;;;;;6211443;23;20162;-94
2023/12/02 02:45:41;;;;;;;29.90;12.37;;;;;;;;;;6208542;23;20277;-93
2023/12/02 02:48:47;;;;;;;30.03;12.10;;;;;;;;;;6208953;23;20167;-91
2023/12/02 02:51:52;;;;;;;31.23;13.37;;;;;;;;;;6209314;23;20204;-92
2023/12/02 02:54:59;;;;;;;30.80;12.43;;;;;;;;;;6210287;22;20175;-93
2023/12/02 02:58:04;;;;;;;35.00;14.13;;;;;;;;;;6209690;23;20182;-93
2023/12/02 03:01:09;;;;;;;31.23;11.87;;;;;;;;;;6212796;23;20210;-92
2023/12/02 03:04:14;;;;;;;30.87;12.37;;;;;;;;;;6212300;23;20271;-93
2023/12/02 03:07:19;;;;;;;33.47;14.50;;;;;;;;;;6212649;23;20163;-93
2023/12/02 03:10:26;;;;;;;28.37;11.97;;;;;;;;;;6212496;23;20171;-94
2023/12/02 03:13:31;;;;;;;32.90;12.90;;;;;;;;;;6213805;22;20243;-92
2023/12/02 03:16:40;;;;;;;30.47;11.93;;;;;;;;;;6211907;22;20168;-91
2023/12/02 03:19:46;;;;;;;31.43;11.50;;;;;;;;;;6209553;23;20162;-91
2023/12/02 03:22:50;;;;;;;27.03;11.87;;;;;;;;;;6210595;23;20155;-92
2023/12/02 03:25:57;;;;;;;31.40;11.60;;;;;;;;;;6209632;23;20510;-93
2023/12/02 03:29:02;;;;;;;35.03;13.97;;;;;;;;;;6211252;23;20262;-93
2023/12/02 03:32:07;;;;;;;32.83;13.53;;;;;;;;;;6212817;22;20171;-94
2023/12/02 03:35:12;;;;;;;33.07;14.00;;;;;;;;;;6211810;22;20268;-93
2023/12/02 03:38:17;;;;;;;34.13;13.30;;;;;;;;;;6211341;23;20159;-93
2023/12/02 03:41:24;;;;;;;30.83;12.97;;;;;;;;;;6211427;23;20167;-94
2023/12/02 03:44:29;;;;;;;32.23;12.93;;;;;;;;;;6211511;23;20283;-94
2023/12/02 03:47:34;;;;;;;30.60;12.70;;;;;;;;;;6211241;23;20630;-93
2023/12/02 03:50:40;;;;;;;33.33;12.67;;;;;;;;;;6212083;22;20214;-93
2023/12/02 03:53:45;;;;;;;33.80;12.77;;;;;;;;;;6212228;23;20179;-93
2023/12/02 03:56:52;;;;;;;32.47;13.27;;;;;;;;;;6212971;23;20159;-93
2023/12/02 03:59:56;;;;;;;33.30;13.50;;;;;;;;;;6213347;23;20618;-91
2023/12/02 04:03:02;;;;;;;36.73;14.87;;;;;;;;;;6212228;23;20217;-93
2023/12/02 04:06:08;;;;;;;33.50;13.63;;;;;;;;;;6210875;23;20211;-92
2023/12/02 04:09:16;;;;;;;35.40;13.27;;;;;;;;;;6211606;22;20151;-93
2023/12/02 04:12:23;;;;;;;33.43;13.03;;;;;;;;;;6212173;23;20179;-92
2023/12/02 04:15:28;;;;;;;38.30;14.40;;;;;;;;;;6211770;23;20635;-92
2023/12/02 04:18:34;;;;;;;36.33;14.27;;;;;;;;;;6209573;23;20166;-91
2023/12/02 04:21:42;;;;;;;32.97;12.90;;;;;;;;;;6211683;23;20240;-92
2023/12/02 04:24:47;;;;;;;37.20;15.07;;;;;;;;;;6209845;23;20211;-91
2023/12/02 04:27:54;;;;;;;32.50;12.93;;;;;;;;;;6210086;22;20159;-92
2023/12/02 04:30:59;;;;;;;35.80;13.63;;;;;;;;;;6210476;22;20619;-94
2023/12/02 04:34:04;;;;;;;32.53;13.17;;;;;;;;;;6209882;23;20166;-92
2023/12/02 04:37:09;;;;;;;31.03;12.47;;;;;;;;;;6208474;23;20171;-93
2023/12/02 04:40:14;;;;;;;32.93;14.23;;;;;;;;;;6210517;23;20170;-92
2023/12/02 04:43:21;;;;;;;30.30;13.33;;;;;;;;;;6208822;23;20179;-91
2023/12/02 04:46:26;;;;;;;36.00;14.07;;;;;;;;;;6212159;23;20178;-91
2023/12/02 04:49:32;;;;;;;37.37;14.83;;;;;;;;;;6212856;23;20167;-92
2023/12/02 04:52:37;;;;;;;34.17;14.13;;;;;;;;;;6210973;23;20195;-91
2023/12/02 04:55:42;;;;;;;40.43;13.33;;;;;;;;;;6210280;23;20178;-91
2023/12/02 04:58:49;;;;;;;34.03;12.80;;;;;;;;;;6210839;23;20191;-92
2023/12/02 05:01:55;;;;;;;36.80;14.07;;;;;;;;;;6208451;23;20195;-90
2023/12/02 05:05:03;;;;;;;35.77;13.67;;;;;;;;;;6209286;23;20283;-92
2023/12/02 05:08:08;;;;;;;34.40;13.50;;;;;;;;;;6209836;22;20279;-92
2023/12/02 05:11:18;;;;;;;36.23;14.07;;;;;;;;;;6210599;23;20296;-92
2023/12/02 05:14:24;;;;;;;36.40;14.67;;;;;;;;;;6211085;22;20223;-92
2023/12/02 05:17:29;;;;;;;31.40;13.50;;;;;;;;;;6210366;22;20166;-93
2023/12/02 05:20:34;;;;;;;35.73;13.87;;;;;;;;;;6211760;23;20179;-90
2023/12/02 05:23:42;;;;;;;33.43;13.70;;;;;;;;;;6211742;22;20163;-93
2023/12/02 05:26:48;;;;;;;34.97;13.80;;;;;;;;;;6211882;23;20187;-93
2023/12/02 05:29:54;;;;;;;37.80;14.23;;;;;;;;;;6212122;23;20167;-92
2023/12/02 05:33:02;;;;;;;36.80;14.73;;;;;;;;;;6213082;23;20167;-92
2023/12/02 05:36:10;;;;;;;42.70;16.37;;;;;;;;;;6212350;23;20167;-92
2023/12/02 05:39:15;;;;;;;34.17;13.63;;;;;;;;;;6211183;23;20243;-94
2023/12/02 05:42:21;;;;;;;41.97;16.13;;;;;;;;;;6212305;23;20210;-93
2023/12/02 05:45:28;;;;;;;39.40;15.60;;;;;;;;;;6211813;23;20203;-91
2023/12/02 05:48:34;;;;;;;38.57;15.07;;;;;;;;;;6212538;22;20167;-90
2023/12/02 05:51:39;;;;;;;40.10;16.60;;;;;;;;;;6211264;23;20167;-92
2023/12/02 05:54:44;;;;;;;36.90;16.03;;;;;;;;;;6210490;23;20158;-92
2023/12/02 05:57:49;;;;;;;40.67;14.80;;;;;;;;;;6209637;22;20162;-92
2023/12/02 06:00:56;;;;;;;35.80;14.47;;;;;;;;;;6208814;22;20671;-92
2023/12/02 06:04:01;;;;;;;34.60;13.97;;;;;;;;;;6211360;23;20171;-91
2023/12/02 06:07:06;;;;;;;33.20;13.30;;;;;;;;;;6208360;22;20636;-92
2023/12/02 06:10:11;;;;;;;34.63;14.23;;;;;;;;;;6208847;23;20163;-92
2023/12/02 06:13:16;;;;;;;36.97;14.77;;;;;;;;;;6209269;23;20159;-89
2023/12/02 06:16:23;;;;;;;33.40;12.77;;;;;;;;;;6208948;23;20170;-93
2023/12/02 06:19:28;;;;;;;35.63;13.83;;;;;;;;;;6211689;23;20251;-92
2023/12/02 06:22:34;;;;;;;42.50;14.43;;;;;;;;;;6211936;23;20170;-92
2023/12/02 06:25:39;;;;;;;38.63;15.30;;;;;;;;;;6209891;23;20226;-92
2023/12/02 06:28:49;;;;;;;44.80;15.97;;;;;;;;;;6212972;23;20164;-91
2023/12/02 06:31:56;;;;;;;35.23;14.83;;;;;;;;;;6211073;23;20163;-92
2023/12/02 06:35:01;;;;;;;37.87;14.07;;;;;;;;;;6211391;22;20186;-92
2023/12/02 06:38:06;;;;;;;38.77;14.67;;;;;;;;;;6211105;22;20174;-92
2023/12/02 06:41:11;;;;;;;35.50;13.00;;;;;;;;;;6212556;23;20186;-92
2023/12/02 06:44:17;;;;;;;38.77;16.07;;;;;;;;;;6211969;23;20163;-91
2023/12/02 06:47:24;;;;;;;38.67;14.27;;;;;;;;;;6213316;23;20195;-91
2023/12/02 06:50:29;;;;;;;38.03;15.23;;;;;;;;;;6213401;23;20220;-92
2023/12/02 06:53:35;;;;;;;35.77;14.13;;;;;;;;;;6215040;22;20171;-90
2023/12/02 06:56:40;;;;;;;38.03;15.80;;;;;;;;;;6214689;23;20214;-92
2023/12/02 06:59:46;;;;;;;39.37;14.80;;;;;;;;;;6214859;23;20210;-91
2023/12/02 07:02:53;;;;;;;35.87;14.07;;;;;;;;;;6213404;23;20264;-92
2023/12/02 07:05:58;;;;;;;35.33;14.17;;;;;;;;;;6213588;22;20195;-91
2023/12/02 07:09:04;;;;;;;35.00;13.57;;;;;;;;;;6212615;23;20211;-91
2023/12/02 07:12:14;;;;;;;36.43;14.07;;;;;;;;;;6214276;23;20191;-94
2023/12/02 07:15:19;;;;;;;35.87;14.50;;;;;;;;;;6212626;23;20179;-92
2023/12/02 07:18:25;;;;;;;38.10;13.70;;;;;;;;;;6212178;22;20170;-90
2023/12/02 07:21:30;;;;;;;32.50;14.30;;;;;;;;;;6212525;22;20618;-90
2023/12/02 07:24:35;;;;;;;39.33;15.43;;;;;;;;;;6215489;22;20216;-91
2023/12/02 07:27:40;;;;;;;33.97;13.93;;;;;;;;;;6211952;23;20202;-92
2023/12/02 07:30:48;;;;;;;36.27;14.30;;;;;;;;;;6212979;23;20179;-93
2023/12/02 07:33:55;;;;;;;38.97;15.50;;;;;;;;;;6213187;22;20250;-93
2023/12/02 07:37:00;;;;;;;38.83;16.10;;;;;;;;;;6211729;23;20171;-90
2023/12/02 07:40:06;;;;;;;35.37;14.23;;;;;;;;;;6212400;23;20167;-92
2023/12/02 07:43:12;;;;;;;34.17;14.30;;;;;;;;;;6213625;22;20167;-92
2023/12/02 07:46:16;;;;;;;33.67;13.50;;;;;;;;;;6212367;22;20238;-93
2023/12/02 07:49:23;;;;;;;31.63;13.97;;;;;;;;;;6210230;22;20167;-92
2023/12/02 07:52:28;;;;;;;33.77;14.30;;;;;;;;;;6209223;23;20163;-89
2023/12/02 07:55:33;;;;;;;34.43;14.07;;;;;;;;;;6213356;22;20166;-92
2023/12/02 07:58:39;;;;;;;48.67;16.97;;;;;;;;;;6214786;22;20167;-92
2023/12/02 08:01:44;;;;;;;36.27;14.63;;;;;;;;;;6214027;23;20260;-91
2023/12/02 08:04:51;;;;;;;33.83;13.60;;;;;;;;;;6213267;23;20167;-90
2023/12/02 08:07:56;;;;;;;31.83;13.20;;;;;;;;;;6210499;23;20190;-91
2023/12/02 08:11:01;;;;;;;32.37;13.80;;;;;;;;;;6212492;22;20171;-92
2023/12/02 08:14:06;;;;;;;30.70;13.97;;;;;;;;;;6212629;22;20614;-91
2023/12/02 08:17:11;;;;;;;31.30;12.97;;;;;;;;;;6212395;23;20239;-91
2023/12/02 08:20:18;;;;;;;28.83;12.53;;;;;;;;;;6213125;23;20175;-90
2023/12/02 08:23:23;;;;;;;33.27;13.17;;;;;;;;;;6209966;22;20166;-92
2023/12/02 08:26:28;;;;;;;35.57;14.23;;;;;;;;;;6211053;23;20198;-91
2023/12/02 08:29:34;;;;;;;39.13;15.27;;;;;;;;;;6209430;23;20473;-93
2023/12/02 08:32:39;;;;;;;34.90;14.50;;;;;;;;;;6210713;23;20172;-90
2023/12/02 19:10:13;;;;;;;30.93;12.90;;;;;;;;;;6158002;22;1314153;-90
2023/12/02 19:13:18;;;;;;;29.63;12.57;;;;;;;;;;6169773;23;20269;-91
2023/12/02 19:16:23;;;;;;;30.60;12.50;;;;;;;;;;6164466;23;20214;-91
2023/12/02 19:19:28;;;;;;;28.77;12.20;;;;;;;;;;6170446;23;20224;-90
2023/12/02 23:02:43;;;;;;;15.70;7.77;;;;;;;;;;6175711;23;20216;-87
2023/12/02 23:05:48;;;;;;;14.90;7.60;;;;;;;;;;6165111;23;20163;-89
2023/12/02 23:08:52;;;;;;;17.83;8.13;;;;;;;;;;6166854;23;20204;-90
2023/12/02 23:11:59;;;;;;;16.77;8.47;;;;;;;;;;6166257;23;20852;-89
2023/12/02 23:15:09;;;;;;;15.90;7.20;;;;;;;;;;6169322;23;20188;-91
2023/12/02 23:18:17;;;;;;;14.83;7.70;;;;;;;;;;6167187;23;20604;-92
2023/12/02 23:21:22;;;;;;;13.67;7.63;;;;;;;;;;6166497;23;20187;-90
2023/12/02 23:24:27;;;;;;;14.27;7.50;;;;;;;;;;6167613;23;20185;-91
2023/12/02 23:27:34;;;;;;;17.37;7.47;;;;;;;;;;6168503;23;20164;-89
2023/12/02 23:30:40;;;;;;;16.30;8.17;;;;;;;;;;6168047;23;20224;-91
2023/12/02 23:33:46;;;;;;;15.83;8.00;;;;;;;;;;6167641;23;20169;-89
2023/12/02 23:36:52;;;;;;;15.93;7.50;;;;;;;;;;6167344;23;20244;-89
2023/12/02 23:39:57;;;;;;;16.73;8.10;;;;;;;;;;6166087;23;20308;-90
2023/12/02 23:43:03;;;;;;;17.57;8.50;;;;;;;;;;6167653;23;20250;-89
2023/12/02 23:46:08;;;;;;;20.07;8.17;;;;;;;;;;6169159;23;20187;-90
2023/12/02 23:49:14;;;;;;;18.13;8.23;;;;;;;;;;6169129;23;20189;-89
2023/12/02 23:52:20;;;;;;;16.83;8.43;;;;;;;;;;6170304;23;20264;-92
2023/12/02 23:55:25;;;;;;;14.60;7.60;;;;;;;;;;6170316;23;20168;-89
2023/12/02 23:58:31;;;;;;;14.33;7.10;;;;;;;;;;6170942;23;20164;-90
